Time;durP1;ratioP1;P1;durP2;ratioP2;P2;SDS_P1;SDS_P2;PMS_P1;PMS_P2;Temp;Humidity;BMP_temperature;BMP_pressure;BME280_temperature;BME280_humidity;BME280_pressure;Samples;Min_cycle;Max_cycle;Signal;HPM_P1;HPM_P2
2023/07/26 00:02:24;;;;;;;9.50;4.90;;;;;;;22.27;100.00;99859.30;105562;1254;61743;-43
2023/07/26 00:04:51;;;;;;;5.80;4.30;;;;;;;22.22;100.00;99866.10;105531;1254;60466;-44
2023/07/26 00:07:18;;;;;;;10.60;4.60;;;;;;;22.20;100.00;99894.59;105897;1257;73844;-45
2023/07/26 00:09:44;;;;;;;9.00;4.80;;;;;;;22.17;100.00;99906.56;105672;1254;65321;-45
2023/07/26 00:12:11;;;;;;;9.20;5.00;;;;;;;22.14;100.00;99903.49;105705;1257;72509;-45
2023/07/26 00:14:38;;;;;;;9.40;5.20;;;;;;;22.09;100.00;99901.55;105518;1256;61777;-45
2023/07/26 00:17:05;;;;;;;14.80;5.60;;;;;;;22.06;100.00;99893.91;105666;1257;60549;-42
2023/07/26 00:19:32;;;;;;;23.20;5.40;;;;;;;22.03;100.00;99878.31;105571;1255;73669;-42
2023/07/26 00:21:59;;;;;;;13.80;4.90;;;;;;;22.02;100.00;99870.48;105656;1258;64041;-43
2023/07/26 00:24:26;;;;;;;8.90;4.90;;;;;;;22.02;100.00;99910.73;105673;1254;72623;-41
2023/07/26 00:26:53;;;;;;;13.40;5.30;;;;;;;22.01;100.00;99944.14;105620;1259;61605;-42
2023/07/26 00:29:20;;;;;;;8.10;4.70;;;;;;;22.02;100.00;99933.58;105612;1255;60422;-44
2023/07/26 00:31:47;;;;;;;9.80;4.60;;;;;;;22.03;100.00;99914.82;105687;1260;73823;-44
2023/07/26 00:34:14;;;;;;;11.00;5.30;;;;;;;22.05;100.00;99903.59;105779;1254;65523;-42
2023/07/26 00:36:42;;;;;;;10.70;4.70;;;;;;;22.06;100.00;99912.32;105797;1259;71254;-43
2023/07/26 00:39:09;;;;;;;6.30;4.60;;;;;;;22.06;100.00;99907.91;105518;1255;61998;-42
2023/07/26 00:41:36;;;;;;;8.30;4.20;;;;;;;22.04;100.00;99906.46;105582;1255;60428;-44
2023/07/26 00:44:03;;;;;;;9.10;4.40;;;;;;;22.03;100.00;99900.20;105631;1255;75819;-44
2023/07/26 00:46:30;;;;;;;9.10;4.60;;;;;;;22.03;100.00;99895.15;105641;1254;65383;-45
2023/07/26 00:49:00;;;;;;;10.60;4.70;;;;;;;22.02;100.00;99907.20;105674;1259;71334;-45
2023/07/26 00:51:27;;;;;;;9.30;5.00;;;;;;;22.00;100.00;99914.02;105776;1259;61663;-44
2023/07/26 00:53:54;;;;;;;14.40;5.30;;;;;;;21.98;100.00;99916.48;105756;1254;60632;-43
2023/07/26 00:56:21;;;;;;;25.60;6.30;;;;;;;21.96;100.00;99910.48;105542;1258;74319;-42
2023/07/26 00:58:48;;;;;;;18.50;5.60;;;;;;;21.94;100.00;99911.25;105577;1257;65464;-44
2023/07/26 01:01:15;;;;;;;14.10;5.30;;;;;;;21.94;100.00;99915.02;105820;1254;72666;-44
2023/07/26 01:03:42;;;;;;;8.90;5.20;;;;;;;21.91;100.00;99923.82;105622;1256;61813;-43
2023/07/26 01:06:34;;;;;;;33.80;6.00;;;;;;;21.89;100.00;99947.66;105804;1254;60454;-42
2023/07/26 01:09:16;;;;;;;45.40;8.10;;;;;;;21.87;100.00;99968.56;105690;1259;73874;-43
2023/07/26 01:11:52;;;;;;;27.50;7.70;;;;;;;21.85;100.00;99988.00;105628;1257;64658;-42
2023/07/26 01:14:25;;;;;;;;;;;;;;;21.82;100.00;100001.14;105539;1259;72549;-42
2023/07/26 01:16:52;;;;;;;10.60;5.10;;;;;;;21.81;100.00;100012.13;105697;1259;61659;-45
2023/07/26 01:19:19;;;;;;;18.80;6.20;;;;;;;21.80;100.00;100026.11;105579;1257;60585;-43
2023/07/26 01:21:46;;;;;;;10.10;5.30;;;;;;;21.80;100.00;100032.79;105491;1257;73858;-45
2023/07/26 01:24:13;;;;;;;6.70;4.50;;;;;;;21.79;100.00;100031.77;105677;1256;65346;-44
2023/07/26 01:26:42;;;;;;;10.40;4.50;;;;;;;21.79;100.00;100034.92;105650;1259;72504;-43
2023/07/26 01:29:09;;;;;;;12.30;5.00;;;;;;;21.80;100.00;100036.08;105748;1259;61820;-42
2023/07/26 01:31:38;;;;;;;11.40;5.10;;;;;;;21.82;100.00;100019.66;105574;1255;60444;-43
2023/07/26 01:34:06;;;;;;;11.60;5.30;;;;;;;21.82;100.00;100013.86;105689;1259;72762;-42
2023/07/26 01:36:34;;;;;;;9.00;4.90;;;;;;;21.79;100.00;100029.29;105742;1257;64157;-44
2023/07/26 01:39:02;;;;;;;12.70;4.80;;;;;;;21.75;100.00;100046.98;105393;1253;72749;-43
2023/07/26 01:41:29;;;;;;;11.80;4.60;;;;;;;21.73;100.00;100077.90;105577;1257;61648;-45
2023/07/26 01:43:57;;;;;;;12.20;4.90;;;;;;;21.69;100.00;100084.11;105428;1256;314729;-44
2023/07/26 01:48:30;;;;;;;12.80;5.40;;;;;;;21.66;100.00;100119.95;102377;1291;604679;-42
2023/07/26 01:50:57;;;;;;;11.50;4.60;;;;;;;21.61;100.00;100103.09;104750;1269;61840;-48
2023/07/26 01:53:24;;;;;;;14.30;5.00;;;;;;;21.59;100.00;100104.64;104785;1267;62615;-44
2023/07/26 01:55:52;;;;;;;7.90;4.90;;;;;;;21.56;100.00;100102.72;104838;1269;72142;-46
2023/07/26 01:58:19;;;;;;;19.90;5.60;;;;;;;21.53;100.00;100101.31;105240;1269;66968;-48
2023/07/26 02:00:46;;;;;;;13.40;5.30;;;;;;;21.51;100.00;100102.55;104989;1260;269378;-43
2023/07/26 02:03:14;;;;;;;14.40;5.70;;;;;;;21.49;100.00;100099.20;105526;1260;61851;-44
2023/07/26 02:05:45;;;;;;;21.40;6.00;;;;;;;21.47;100.00;100102.52;105146;1266;60317;-43
2023/07/26 02:08:15;;;;;;;16.60;5.30;;;;;;;21.45;100.00;100094.36;105091;1269;71048;-45
2023/07/26 02:10:42;;;;;;;28.30;6.70;;;;;;;21.44;100.00;100094.25;105549;1266;65474;-44
2023/07/26 02:13:09;;;;;;;24.90;5.90;;;;;;;21.43;100.00;100087.82;105269;1261;72633;-46
2023/07/26 02:15:36;;;;;;;19.70;5.80;;;;;;;21.43;100.00;100085.88;105262;1266;62167;-43
2023/07/26 02:18:02;;;;;;;24.60;6.90;;;;;;;21.42;100.00;100081.05;105194;1260;60809;-43
2023/07/26 02:20:30;;;;;;;14.20;5.80;;;;;;;21.42;100.00;100082.51;105429;1260;72361;-44
2023/07/26 02:22:57;;;;;;;8.80;5.10;;;;;;;21.38;100.00;100072.89;105282;1267;65428;-45
2023/07/26 02:25:24;;;;;;;16.50;5.70;;;;;;;21.35;100.00;100075.02;105312;1267;72598;-44
2023/07/26 02:27:51;;;;;;;9.30;5.30;;;;;;;21.33;100.00;100076.59;105224;1260;61938;-43
2023/07/26 02:30:18;;;;;;;10.60;5.30;;;;;;;21.30;100.00;100072.39;105076;1263;60406;-46
2023/07/26 02:32:45;;;;;;;13.80;4.80;;;;;;;21.29;100.00;100073.39;105084;1267;73129;-43
2023/07/26 02:35:12;;;;;;;11.70;5.20;;;;;;;21.27;100.00;100077.36;105067;1267;65300;-43
2023/07/26 02:37:39;;;;;;;8.60;4.70;;;;;;;21.25;100.00;100076.23;105138;1266;71539;-43
2023/07/26 02:40:06;;;;;;;11.20;4.90;;;;;;;21.24;100.00;100063.33;105194;1266;62036;-44
2023/07/26 02:42:33;;;;;;;17.00;5.40;;;;;;;21.23;100.00;100059.73;105168;1263;60164;-43
2023/07/26 02:45:00;;;;;;;21.70;5.60;;;;;;;21.23;100.00;100048.70;105128;1264;73082;-45
2023/07/26 02:47:31;;;;;;;8.80;5.30;;;;;;;21.22;100.00;100049.77;105245;1267;65351;-45
2023/07/26 02:50:04;;;;;;;16.40;6.30;;;;;;;21.23;100.00;100047.30;105050;1266;72677;-42
2023/07/26 02:52:32;;;;;;;9.20;5.40;;;;;;;21.24;100.00;100047.39;105250;1266;62028;-44
2023/07/26 02:54:59;;;;;;;10.50;5.10;;;;;;;21.25;100.00;100049.80;105099;1266;59552;-44
2023/07/26 02:57:26;;;;;;;9.30;5.00;;;;;;;21.25;100.00;100042.58;105180;1264;72910;-45
2023/07/26 02:59:53;;;;;;;14.20;5.60;;;;;;;21.27;100.00;100043.70;105286;1267;65457;-45
2023/07/26 03:02:20;;;;;;;18.80;5.70;;;;;;;21.28;100.00;100045.01;105188;1266;72693;-45
2023/07/26 03:04:47;;;;;;;9.10;5.20;;;;;;;21.30;100.00;100042.23;105168;1264;61707;-44
2023/07/26 03:07:14;;;;;;;9.20;5.30;;;;;;;21.32;100.00;100037.73;105406;1262;60367;-42
2023/07/26 03:09:40;;;;;;;10.80;5.00;;;;;;;21.35;100.00;100037.34;105157;1266;73104;-44
2023/07/26 03:12:07;;;;;;;14.00;5.30;;;;;;;21.38;100.00;100034.33;105134;1267;65708;-45
2023/07/26 03:14:40;;;;;;;13.60;4.90;;;;;;;21.42;100.00;100040.19;105148;1275;72178;-43
2023/07/26 03:17:08;;;;;;;9.00;4.90;;;;;;;21.46;100.00;100042.67;105137;1266;61801;-43
2023/07/26 03:19:50;;;;;;;8.30;4.80;;;;;;;21.51;100.00;100046.52;105196;1264;60208;-42
2023/07/26 03:22:17;;;;;;;11.70;5.50;;;;;;;21.56;100.00;100055.16;105287;1267;73207;-43
2023/07/26 03:24:43;;;;;;;12.20;5.10;;;;;;;21.60;100.00;100060.17;105191;1266;65426;-44
2023/07/26 03:27:11;;;;;;;15.30;5.70;;;;;;;21.64;100.00;100060.60;105121;1266;72511;-44
2023/07/26 03:29:38;;;;;;;11.20;5.60;;;;;;;21.68;100.00;100065.58;105243;1265;61841;-42
2023/07/26 03:32:05;;;;;;;14.40;5.60;;;;;;;21.72;100.00;100069.91;105300;1265;59631;-43
2023/07/26 03:34:32;;;;;;;13.90;5.30;;;;;;;21.74;100.00;100074.25;105172;1262;72991;-45
2023/07/26 03:37:01;;;;;;;9.30;4.90;;;;;;;21.79;100.00;100076.38;105229;1266;65553;-44
2023/07/26 03:39:28;;;;;;;15.70;5.90;;;;;;;21.84;100.00;100090.48;105669;1260;72686;-45
2023/07/26 03:41:55;;;;;;;12.50;5.50;;;;;;;21.88;100.00;100102.82;105476;1259;61801;-43
2023/07/26 03:44:21;;;;;;;12.90;5.30;;;;;;;21.91;100.00;100106.60;105712;1260;59791;-44
2023/07/26 03:46:49;;;;;;;7.20;4.90;;;;;;;21.96;100.00;100112.08;105590;1259;72908;-42
2023/07/26 03:49:15;;;;;;;11.60;5.30;;;;;;;22.00;100.00;100120.91;105660;1259;65263;-45
2023/07/26 03:51:42;;;;;;;9.20;5.50;;;;;;;22.05;100.00;100127.40;105628;1258;72608;-44
2023/07/26 03:54:09;;;;;;;9.10;5.10;;;;;;;22.12;100.00;100123.79;105797;1254;61929;-40
2023/07/26 03:56:36;;;;;;;12.50;5.40;;;;;;;22.19;100.00;100135.04;105619;1254;60328;-44
2023/07/26 03:59:03;;;;;;;10.20;5.30;;;;;;;22.29;100.00;100144.13;105566;1258;72761;-46
2023/07/26 04:01:31;;;;;;;11.40;5.60;;;;;;;22.42;100.00;100143.08;105877;1260;64232;-43
2023/07/26 04:03:57;;;;;;;12.70;5.20;;;;;;;22.60;100.00;100148.09;105837;1254;72486;-44
2023/07/26 04:06:25;;;;;;;9.10;5.70;;;;;;;22.79;100.00;100148.42;105638;1254;61976;-43
2023/07/26 04:08:51;;;;;;;9.70;5.20;;;;;;;22.98;100.00;100139.43;105655;1260;59845;-45
2023/07/26 04:11:19;;;;;;;9.20;5.10;;;;;;;23.19;100.00;100125.41;105690;1255;73318;-45
2023/07/26 04:13:46;;;;;;;11.90;5.20;;;;;;;23.36;100.00;100103.48;105741;1257;65559;-48
2023/07/26 04:16:15;;;;;;;7.70;4.90;;;;;;;23.50;100.00;100056.45;105584;1267;71418;-46
2023/07/26 04:18:42;;;;;;;10.70;5.30;;;;;;;23.59;100.00;99976.39;105758;1258;61790;-45
2023/07/26 04:21:17;;;;;;;9.80;5.50;;;;;;;23.63;100.00;99907.92;105622;1254;60048;-42
2023/07/26 04:23:46;;;;;;;9.10;5.20;;;;;;;23.70;100.00;99875.98;105556;1257;73017;-43
2023/07/26 04:26:13;;;;;;;13.60;5.10;;;;;;;23.82;100.00;99860.42;105639;1254;65556;-46
2023/07/26 04:28:41;;;;;;;16.30;5.60;;;;;;;23.93;100.00;99814.20;105618;1257;71690;-46
2023/07/26 04:31:07;;;;;;;9.60;5.00;;;;;;;24.00;100.00;99766.44;106029;1257;61906;-43
2023/07/26 04:33:34;;;;;;;12.30;5.90;;;;;;;24.06;100.00;99714.44;105650;1260;60278;-43
2023/07/26 04:36:01;;;;;;;13.80;5.50;;;;;;;24.12;100.00;99672.89;105830;1257;72943;-44
2023/07/26 04:38:29;;;;;;;13.20;5.20;;;;;;;24.18;100.00;99638.16;105644;1257;65809;-44
2023/07/26 04:40:56;;;;;;;11.90;5.80;;;;;;;24.25;100.00;99592.46;105711;1257;72828;-46
2023/07/26 04:43:22;;;;;;;16.20;5.60;;;;;;;24.30;100.00;99551.28;105700;1257;61895;-44
2023/07/26 04:45:50;;;;;;;12.50;4.90;;;;;;;24.38;100.00;99514.94;105683;1254;60240;-43
2023/07/26 04:48:17;;;;;;;12.70;5.70;;;;;;;24.46;100.00;99455.85;105867;1257;72994;-43
2023/07/26 04:50:46;;;;;;;8.50;5.00;;;;;;;24.52;100.00;99435.21;105800;1257;65955;-44
2023/07/26 04:53:13;;;;;;;11.00;5.40;;;;;;;24.59;100.00;99391.00;109403;1254;74957;-46
2023/07/26 04:55:44;;;;;;;11.10;4.90;;;;;;;24.60;100.00;99359.41;109439;1254;60346;-43
2023/07/26 04:58:11;;;;;;;11.50;5.30;;;;;;;24.63;100.00;99343.94;109435;1253;58516;-45
2023/07/26 05:00:41;;;;;;;14.00;5.50;;;;;;;24.72;100.00;99337.09;109434;1254;72757;-46
2023/07/26 05:03:09;;;;;;;10.20;5.70;;;;;;;24.80;100.00;99306.90;109431;1254;64992;-44
2023/07/26 05:05:36;;;;;;;10.40;5.20;;;;;;;24.83;100.00;99294.37;109499;1253;72576;-45
2023/07/26 05:08:04;;;;;;;11.50;5.10;;;;;;;24.93;100.00;99290.13;109417;1254;61094;-48
2023/07/26 05:10:31;;;;;;;10.00;6.00;;;;;;;25.03;100.00;99288.98;109425;1254;60181;-44
2023/07/26 05:12:58;;;;;;;11.10;5.40;;;;;;;25.19;100.00;99294.65;109430;1254;71785;-43
2023/07/26 05:15:25;;;;;;;8.20;5.10;;;;;;;25.35;100.00;99299.08;109451;1254;64122;-44
2023/07/26 05:17:51;;;;;;;9.60;5.30;;;;;;;25.54;100.00;99313.35;109331;1254;72648;-46
2023/07/26 05:20:18;;;;;;;10.00;5.60;;;;;;;25.63;100.00;99335.21;109358;1254;60164;-45
2023/07/26 05:22:45;;;;;;;16.00;5.20;;;;;;;25.63;100.00;99347.45;109306;1254;59346;-45
2023/07/26 05:25:11;;;;;;;11.50;5.30;;;;;;;25.59;100.00;99358.23;109381;1254;72836;-44
2023/07/26 05:27:38;;;;;;;7.40;4.90;;;;;;;25.49;100.00;99366.81;109402;1254;65334;-45
2023/07/26 05:33:19;;;;;;;7.40;5.30;;;;;;;25.34;100.00;99368.57;102424;1294;615976;-46
2023/07/26 05:35:48;;;;;;;8.60;5.90;;;;;;;25.33;100.00;99368.46;104885;1269;60296;-46
2023/07/26 05:38:19;;;;;;;11.80;5.60;;;;;;;25.36;100.00;99370.83;104959;1267;60182;-48
2023/07/26 05:40:46;;;;;;;8.60;6.00;;;;;;;25.39;100.00;99373.06;105124;1269;72464;-44
2023/07/26 05:43:13;;;;;;;9.20;5.70;;;;;;;25.34;100.00;99377.77;105232;1266;65516;-50
2023/07/26 05:45:41;;;;;;;11.60;6.10;;;;;;;25.31;100.00;99372.58;105246;1261;350049;-44
2023/07/26 05:48:08;;;;;;;12.50;5.30;;;;;;;25.28;100.00;99363.87;105198;1265;59237;-46
2023/07/26 05:50:36;;;;;;;12.10;5.90;;;;;;;25.30;100.00;99354.90;105194;1261;60312;-45
2023/07/26 05:53:02;;;;;;;10.20;5.90;;;;;;;25.29;100.00;99358.16;105252;1266;72005;-48
2023/07/26 05:55:29;;;;;;;10.20;6.00;;;;;;;25.27;100.00;99357.83;105365;1267;65595;-45
2023/07/26 05:57:56;;;;;;;14.20;6.50;;;;;;;25.28;100.00;99361.63;105163;1263;72346;-44
2023/07/26 06:00:23;;;;;;;10.10;5.30;;;;;;;25.41;100.00;99357.99;105171;1264;61933;-45
2023/07/26 06:02:50;;;;;;;9.90;5.70;;;;;;;25.63;100.00;99363.83;105207;1261;60304;-43
2023/07/26 06:05:17;;;;;;;7.50;5.70;;;;;;;25.77;100.00;99383.59;105183;1264;72892;-48
2023/07/26 06:07:44;;;;;;;11.50;5.60;;;;;;;25.88;100.00;99392.96;105204;1263;65319;-45
2023/07/26 06:10:11;;;;;;;10.80;5.60;;;;;;;26.01;100.00;99412.91;105105;1261;72658;-43
2023/07/26 06:12:39;;;;;;;17.40;5.70;;;;;;;26.06;100.00;99433.38;105185;1266;60174;-46
2023/07/26 06:15:06;;;;;;;9.90;5.50;;;;;;;26.04;100.00;99462.91;105256;1261;60137;-43
2023/07/26 06:17:33;;;;;;;8.60;5.60;;;;;;;25.99;100.00;99475.30;105215;1261;73059;-44
2023/07/26 06:20:00;;;;;;;10.20;6.60;;;;;;;26.00;100.00;99483.86;105299;1266;65435;-47
2023/07/26 06:22:28;;;;;;;16.40;6.20;;;;;;;26.03;100.00;99479.67;105261;1261;72494;-43
2023/07/26 06:24:55;;;;;;;12.40;5.90;;;;;;;26.00;100.00;99491.27;105206;1266;61988;-46
2023/07/26 06:27:28;;;;;;;9.00;5.10;;;;;;;25.97;100.00;99490.65;105268;1261;60131;-44
2023/07/26 06:29:55;;;;;;;11.10;6.40;;;;;;;25.98;100.00;99478.80;105288;1262;72917;-44
2023/07/26 06:32:22;;;;;;;13.30;6.20;;;;;;;26.04;100.00;99465.12;105290;1265;65291;-45
2023/07/26 06:34:49;;;;;;;15.50;6.00;;;;;;;26.10;100.00;99471.58;105253;1261;72657;-46
2023/07/26 06:37:16;;;;;;;11.50;6.10;;;;;;;26.14;100.00;99483.07;105236;1260;60243;-45
2023/07/26 06:39:43;;;;;;;14.40;6.50;;;;;;;26.25;100.00;99480.21;105257;1261;60340;-43
2023/07/26 06:42:10;;;;;;;12.30;5.90;;;;;;;26.36;100.00;99487.42;105253;1261;72908;-43
2023/07/26 06:44:39;;;;;;;14.90;5.40;;;;;;;26.48;100.00;99494.17;105197;1265;65492;-42
2023/07/26 06:47:07;;;;;;;17.70;6.50;;;;;;;26.55;100.00;99506.78;105255;1267;72571;-43
2023/07/26 06:49:35;;;;;;;10.40;5.60;;;;;;;26.62;100.00;99506.53;105343;1265;59737;-44
2023/07/26 06:52:01;;;;;;;9.50;5.10;;;;;;;26.67;100.00;99516.00;105188;1263;60223;-45
2023/07/26 06:54:30;;;;;;;11.80;5.80;;;;;;;26.68;100.00;99523.98;105293;1264;73072;-44
2023/07/26 06:56:57;;;;;;;12.70;5.80;;;;;;;26.76;100.00;99524.80;106008;1254;63976;-45
2023/07/26 06:59:24;;;;;;;8.70;5.80;;;;;;;26.98;100.00;99515.40;105837;1252;72513;-46
2023/07/26 07:01:51;;;;;;;15.20;5.80;;;;;;;27.25;100.00;99510.30;105818;1257;62012;-45
2023/07/26 07:04:18;;;;;;;9.40;5.40;;;;;;;27.40;100.00;99525.60;105871;1254;60311;-45
2023/07/26 07:06:45;;;;;;;13.60;5.70;;;;;;;27.36;100.00;99543.33;105722;1257;72870;-45
2023/07/26 07:09:12;;;;;;;15.20;5.90;;;;;;;27.22;100.00;99566.03;105763;1254;65461;-44
2023/07/26 07:11:40;;;;;;;10.40;6.40;;;;;;;27.11;100.00;99579.22;105712;1254;72354;-43
2023/07/26 07:14:07;;;;;;;13.50;5.00;;;;;;;27.10;100.00;99567.36;105889;1257;60121;-45
2023/07/26 07:16:37;;;;;;;5.60;5.00;;;;;;;27.16;100.00;99565.57;105854;1253;60283;-43
2023/07/26 07:19:04;;;;;;;15.70;5.40;;;;;;;27.28;100.00;99558.49;105801;1256;72912;-45
2023/07/26 07:21:31;;;;;;;10.30;5.90;;;;;;;27.41;100.00;99557.89;105863;1256;65456;-45
2023/07/26 07:23:59;;;;;;;18.40;5.80;;;;;;;27.46;100.00;99558.97;105873;1254;72642;-44
2023/07/26 07:26:26;;;;;;;19.90;6.30;;;;;;;27.48;100.00;99567.92;105871;1254;60320;-44
2023/07/26 07:28:53;;;;;;;7.50;5.30;;;;;;;27.56;100.00;99568.06;105880;1254;60165;-45
2023/07/26 07:31:20;;;;;;;8.50;5.00;;;;;;;27.69;100.00;99577.67;105878;1257;71541;-43
2023/07/26 07:33:48;;;;;;;12.70;6.30;;;;;;;27.91;100.00;99577.04;105866;1257;65487;-43
2023/07/26 07:36:18;;;;;;;12.80;6.00;;;;;;;28.09;100.00;99582.20;105854;1257;72705;-45
2023/07/26 07:38:45;;;;;;;11.00;5.40;;;;;;;28.22;100.00;99584.20;105877;1256;60264;-43
2023/07/26 07:41:13;;;;;;;12.80;5.70;;;;;;;28.34;100.00;99590.89;105983;1254;59519;-45
2023/07/26 07:43:40;;;;;;;8.30;5.30;;;;;;;28.37;100.00;99603.77;105865;1254;72741;-44
2023/07/26 07:46:07;;;;;;;11.10;5.70;;;;;;;28.40;100.00;99605.94;105847;1257;65541;-49
2023/07/26 07:48:35;;;;;;;6.00;5.20;;;;;;;28.50;98.37;99589.61;105873;1254;72518;-47
2023/07/26 07:51:02;;;;;;;11.80;6.10;;;;;;;28.60;97.90;99595.33;105912;1257;60189;-46
2023/07/26 07:53:29;;;;;;;16.00;5.80;;;;;;;28.72;99.38;99610.83;105875;1254;60365;-44
2023/07/26 07:55:57;;;;;;;6.40;5.60;;;;;;;28.87;89.27;99575.83;105892;1253;73039;-43
2023/07/26 07:58:26;;;;;;;19.80;5.90;;;;;;;28.96;86.91;99589.23;105886;1257;65340;-46
2023/07/26 08:00:58;;;;;;;14.50;5.20;;;;;;;29.03;89.89;99601.09;105876;1254;72623;-46
2023/07/26 08:03:25;;;;;;;14.20;5.40;;;;;;;29.17;94.43;99615.58;105863;1257;60146;-44
2023/07/26 08:05:53;;;;;;;16.30;5.70;;;;;;;29.36;90.98;99590.18;105906;1254;60249;-45
2023/07/26 08:08:20;;;;;;;17.30;6.10;;;;;;;29.46;83.11;99573.45;105844;1254;73008;-43
2023/07/26 08:10:46;;;;;;;17.90;5.80;;;;;;;29.56;83.57;99594.42;105818;1257;65481;-45
2023/07/26 08:13:14;;;;;;;10.00;5.30;;;;;;;29.69;79.32;99565.53;105877;1254;72627;-49
2023/07/26 08:15:40;;;;;;;15.20;5.70;;;;;;;29.78;75.44;99549.39;105680;1257;60287;-51
2023/07/26 08:18:08;;;;;;;19.30;5.60;;;;;;;29.84;76.90;99585.27;105889;1254;60768;-48
2023/07/26 08:20:35;;;;;;;29.50;6.60;;;;;;;29.98;77.72;99590.23;105875;1254;73470;-42
2023/07/26 08:23:03;;;;;;;24.30;6.10;;;;;;;30.18;77.56;99587.48;105869;1257;65531;-44
2023/07/26 08:25:30;;;;;;;23.50;5.90;;;;;;;30.32;73.68;99545.81;105842;1254;72613;-41
2023/07/26 08:27:57;;;;;;;37.00;7.50;;;;;;;30.35;72.23;99541.14;105852;1257;60289;-44
2023/07/26 08:30:24;;;;;;;19.30;5.90;;;;;;;30.41;72.38;99557.20;105922;1254;60211;-45
2023/07/26 08:32:52;;;;;;;49.60;7.40;;;;;;;30.50;70.28;99535.71;105880;1254;72986;-42
2023/07/26 08:35:20;;;;;;;18.60;6.10;;;;;;;30.60;69.48;99532.64;105865;1254;63914;-44
2023/07/26 08:37:47;;;;;;;23.90;6.20;;;;;;;30.61;68.03;99526.38;105845;1254;72596;-44
2023/07/26 08:40:14;;;;;;;14.10;4.90;;;;;;;30.62;66.37;99499.95;105863;1257;60181;-44
2023/07/26 08:42:41;;;;;;;29.10;6.00;;;;;;;30.64;65.60;99500.48;105893;1254;60445;-45
2023/07/26 08:45:08;;;;;;;20.90;5.40;;;;;;;30.63;63.51;99467.10;105845;1254;72748;-46
2023/07/26 08:47:35;;;;;;;12.20;4.80;;;;;;;30.55;63.68;99489.58;105722;1260;65468;-44
2023/07/26 08:50:04;;;;;;;10.00;5.40;;;;;;;30.55;64.37;99524.98;105830;1254;72564;-44
2023/07/26 08:52:31;;;;;;;8.90;5.60;;;;;;;30.69;63.51;99511.92;105897;1257;60294;-43
2023/07/26 08:54:59;;;;;;;9.90;5.80;;;;;;;30.79;62.97;99503.77;105917;1254;60180;-43
2023/07/26 08:57:26;;;;;;;18.60;5.80;;;;;;;30.76;62.55;99496.36;105895;1255;72935;-46
2023/07/26 08:59:53;;;;;;;20.80;6.30;;;;;;;30.65;61.00;99467.88;105863;1257;65249;-46
2023/07/26 09:02:20;;;;;;;25.80;7.10;;;;;;;30.62;61.16;99483.27;106008;1254;72604;-45
2023/07/26 09:04:47;;;;;;;18.90;7.80;;;;;;;30.66;61.64;99498.94;105701;1260;60699;-44
2023/07/26 09:07:14;;;;;;;15.80;7.50;;;;;;;30.82;61.21;99480.73;105714;1254;60027;-47
2023/07/26 09:09:41;;;;;;;30.80;7.30;;;;;;;30.97;59.98;99449.96;105857;1255;72997;-47
2023/07/26 09:12:08;;;;;;;12.10;6.30;;;;;;;31.10;58.35;99402.69;105875;1256;65243;-45
2023/07/26 09:14:35;;;;;;;14.60;6.50;;;;;;;31.16;58.78;99433.38;105918;1254;73073;-48
2023/07/26 09:17:04;;;;;;;49.60;7.40;;;;;;;31.24;59.01;99445.96;105881;1257;60368;-49
2023/07/26 09:19:32;;;;;;;20.60;6.20;;;;;;;31.35;57.04;99380.70;105898;1255;59502;-49
2023/07/26 09:22:01;;;;;;;25.70;6.60;;;;;;;31.21;56.70;99393.79;105906;1252;72695;-46
2023/07/26 09:24:33;;;;;;;24.80;6.50;;;;;;;31.13;56.65;99417.69;105956;1256;65429;-47
2023/07/26 09:27:04;;;;;;;29.50;7.90;;;;;;;31.05;56.16;99404.08;105727;1258;72715;-46
2023/07/26 09:29:32;;;;;;;26.20;5.80;;;;;;;31.02;56.51;99433.17;105998;1256;60748;-46
2023/07/26 09:31:59;;;;;;;23.20;6.10;;;;;;;31.06;57.94;99479.80;105972;1253;60788;-44
2023/07/26 09:34:26;;;;;;;16.00;6.50;;;;;;;31.20;57.58;99466.24;105975;1254;73028;-44
2023/07/26 09:36:54;;;;;;;10.20;4.90;;;;;;;31.35;57.68;99463.10;105910;1257;65570;-44
2023/07/26 09:39:22;;;;;;;16.00;5.50;;;;;;;31.49;57.28;99447.73;105909;1253;72699;-47
2023/07/26 09:41:50;;;;;;;18.80;5.80;;;;;;;31.53;55.64;99384.45;105947;1254;60423;-46
2023/07/26 09:44:19;;;;;;;22.70;6.20;;;;;;;31.48;54.83;99366.63;105956;1254;60536;-45
2023/07/26 09:46:56;;;;;;;8.80;5.70;;;;;;;31.24;55.49;99417.29;105945;1255;73716;-46
2023/07/26 09:49:26;;;;;;;17.30;5.20;;;;;;;31.03;56.34;99449.71;105945;1257;65453;-44
2023/07/26 09:51:58;;;;;;;16.50;5.70;;;;;;;30.82;56.64;99459.89;105929;1253;72582;-43
2023/07/26 09:54:29;;;;;;;20.40;6.10;;;;;;;30.59;56.94;99479.52;105941;1256;60703;-44
2023/07/26 09:57:02;;;;;;;9.70;5.60;;;;;;;30.45;57.86;99499.89;105903;1253;60471;-44
2023/07/26 09:59:30;;;;;;;23.20;5.80;;;;;;;30.45;59.23;99530.55;105953;1253;74059;-43
2023/07/26 10:01:59;;;;;;;16.30;5.80;;;;;;;30.64;59.61;99519.51;105720;1259;65539;-44
2023/07/26 10:04:50;;;;;;;13.60;5.90;;;;;;;30.91;60.38;99528.66;105728;1255;72635;-45
2023/07/26 10:07:17;;;;;;;28.70;6.10;;;;;;;31.27;59.10;99470.33;105827;1256;60951;-46
2023/07/26 10:09:46;;;;;;;18.60;5.90;;;;;;;31.41;58.18;99446.43;105937;1254;60408;-46
2023/07/26 10:12:14;;;;;;;12.90;5.70;;;;;;;31.40;57.88;99445.92;105941;1254;74227;-46
2023/07/26 10:14:41;;;;;;;10.90;5.00;;;;;;;31.42;57.68;99444.14;105928;1255;64349;-47
2023/07/26 10:17:09;;;;;;;19.20;5.90;;;;;;;31.54;57.23;99423.78;106003;1257;72627;-48
2023/07/26 10:19:37;;;;;;;14.30;5.50;;;;;;;31.67;55.64;99372.77;105768;1257;60403;-47
2023/07/26 10:22:04;;;;;;;12.30;5.20;;;;;;;31.81;55.89;99391.45;105946;1254;60418;-47
2023/07/26 10:24:31;;;;;;;23.90;6.50;;;;;;;31.98;55.39;99373.95;105979;1256;73770;-44
2023/07/26 10:26:59;;;;;;;12.60;5.60;;;;;;;32.16;55.74;99392.75;105700;1260;65743;-44
2023/07/26 10:29:26;;;;;;;18.00;5.70;;;;;;;32.23;54.42;99321.90;105698;1255;73149;-46
2023/07/26 10:32:06;;;;;;;25.00;6.40;;;;;;;32.35;54.98;99352.20;105883;1256;60395;-45
2023/07/26 10:34:34;;;;;;;13.40;5.40;;;;;;;32.55;54.09;99298.51;105934;1252;60452;-44
2023/07/26 10:37:18;;;;;;;31.20;6.20;;;;;;;32.56;52.55;99219.52;105908;1253;74356;-45
2023/07/26 10:39:45;;;;;;;20.50;6.00;;;;;;;32.42;51.64;99200.86;105673;1260;64331;-46
2023/07/26 10:42:25;;;;;;;11.20;5.60;;;;;;;32.19;51.94;99216.94;105904;1255;72746;-44
2023/07/26 10:44:54;;;;;;;15.20;6.00;;;;;;;31.89;52.58;99281.63;105937;1256;60428;-46
2023/07/26 10:47:21;;;;;;;18.80;6.40;;;;;;;31.61;53.23;99323.27;106027;1257;60322;-46
2023/07/26 10:49:48;;;;;;;14.80;5.60;;;;;;;31.41;53.42;99345.23;105910;1257;73796;-49
2023/07/26 10:52:15;;;;;;;15.50;6.60;;;;;;;31.31;54.40;99408.48;105926;1256;65733;-47
2023/07/26 10:54:42;;;;;;;26.80;7.00;;;;;;;31.24;53.15;99351.70;105941;1255;74061;-47
2023/07/26 10:57:16;;;;;;;24.00;6.70;;;;;;;31.17;54.53;99429.15;105851;1256;60576;-44
2023/07/26 11:00:04;;;;;;;15.30;6.50;;;;;;;31.19;55.58;99490.04;105936;1252;60913;-45
2023/07/26 11:02:39;;;;;;;20.20;6.20;;;;;;;31.34;55.26;99468.96;105982;1257;71963;-43
2023/07/26 11:05:10;;;;;;;18.60;6.50;;;;;;;31.69;55.69;99477.48;105962;1257;65416;-46
2023/07/26 11:07:59;;;;;;;25.60;6.20;;;;;;;32.15;54.83;99444.23;105912;1255;72376;-47
2023/07/26 11:10:29;;;;;;;20.20;6.40;;;;;;;32.41;52.31;99304.34;105906;1256;60345;-44
2023/07/26 11:13:16;;;;;;;23.70;6.40;;;;;;;32.49;51.51;99257.64;105924;1257;60337;-45
2023/07/26 11:15:47;;;;;;;21.90;6.00;;;;;;;32.49;51.80;99310.07;105902;1256;73830;-47
2023/07/26 11:18:41;;;;;;;53.60;7.10;;;;;;;32.44;51.87;99313.36;105944;1257;65292;-46
2023/07/26 11:21:13;;;;;;;53.70;7.30;;;;;;;32.47;51.14;99283.73;105913;1253;72047;-45
2023/07/26 11:23:40;;;;;;;44.00;7.00;;;;;;;32.48;51.47;99299.60;105920;1256;60516;-44